Terminal Aerodrome Forecast
Issued by NWS Cleveland, OH

Home | Current Version | Previous Version | Graphics & Text | Print | Product List | Glossary On
Versions: 1 2 3 4 5 6 7 8 9 10 11 12 13 14 15 16 17
000
FTUS41 KCLE 242000 AAA
TAFYNG
TAF AMD
KYNG 242010Z 2420/2518 16010G15KT 6SM BR SCT010 OVC035
      TEMPO 2420/2423 2SM -SHRA BR BKN010 OVC015
     FM242300 18012G22KT 6SM -SHRA OVC015
     FM250000 19018G28KT 4SM -SHRA VCTS OVC010CB
     FM250300 20025G40KT P6SM OVC015
     FM251000 24025G35KT 3SM -SHSN OVC018
     FM251500 25012G25KT 5SM -SHSN BR OVC015=

USA.gov is the U.S. government's official web portal to all federal, state and local government web resources and services.